createdAt,value
2022-09-18T00:00:01.982Z,11.20
2022-09-18T00:05:06.405Z,11.30
2022-09-18T00:10:11.941Z,11.40
2022-09-18T00:15:15.233Z,11.60
2022-09-18T00:20:18.669Z,11.60
2022-09-18T00:25:24.013Z,11.70
2022-09-18T00:30:27.303Z,11.70
2022-09-18T00:35:30.569Z,11.80
2022-09-18T00:40:35.333Z,11.80
2022-09-18T00:45:38.969Z,11.70
2022-09-18T00:50:42.504Z,11.70
2022-09-18T00:55:47.529Z,11.70
2022-09-18T01:00:50.832Z,11.60
2022-09-18T01:06:06.850Z,11.60
2022-09-18T01:11:31.717Z,11.60
2022-09-18T01:16:44.058Z,11.70
2022-09-18T01:21:56.680Z,11.80
2022-09-18T01:27:05.204Z,11.80
2022-09-18T01:32:19.161Z,11.90
2022-09-18T01:37:29.424Z,12.00
2022-09-18T01:42:35.284Z,11.90
2022-09-18T01:47:46.468Z,11.90
2022-09-18T01:52:53.805Z,11.90
2022-09-18T01:58:03.206Z,11.70
2022-09-18T02:03:12.348Z,11.70
2022-09-18T02:08:21.249Z,11.60
2022-09-18T02:13:30.064Z,11.50
2022-09-18T02:18:38.370Z,11.50
2022-09-18T02:23:43.274Z,11.40
2022-09-18T02:28:48.650Z,11.40
2022-09-18T02:33:53.625Z,11.50
2022-09-18T02:39:09.351Z,11.70
2022-09-18T02:44:20.786Z,11.80
2022-09-18T02:49:36.569Z,12.00
2022-09-18T02:54:44.725Z,12.00
2022-09-18T02:59:51.897Z,11.90
2022-09-18T03:04:56.582Z,11.80
2022-09-18T03:09:59.888Z,11.80
2022-09-18T03:15:03.424Z,11.70
2022-09-18T03:20:09.171Z,11.60
2022-09-18T03:25:14.364Z,11.60
2022-09-18T03:30:18.214Z,11.60
2022-09-18T03:35:23.456Z,11.60
2022-09-18T03:40:26.878Z,11.80
2022-09-18T03:45:30.253Z,11.90
2022-09-18T03:50:34.878Z,12.00
2022-09-18T03:55:38.183Z,12.10
2022-09-18T04:00:42.111Z,12.20
2022-09-18T04:05:49.213Z,12.20
2022-09-18T04:10:52.529Z,12.20
2022-09-18T04:15:56.173Z,12.20
2022-09-18T04:21:00.849Z,12.10
2022-09-18T04:26:09.345Z,12.00
2022-09-18T04:31:13.028Z,12.00
2022-09-18T04:36:17.652Z,12.00
2022-09-18T04:41:21.183Z,12.00
2022-09-18T04:46:24.518Z,11.90
2022-09-18T04:51:29.259Z,11.70
2022-09-18T04:56:32.547Z,11.80
2022-09-18T05:01:36.432Z,11.80
2022-09-18T05:06:41.723Z,11.80
2022-09-18T05:11:45.022Z,11.80
2022-09-18T05:16:48.340Z,11.80
2022-09-18T05:21:52.975Z,11.80
2022-09-18T05:26:56.234Z,11.80
2022-09-18T05:31:59.975Z,11.80
2022-09-18T05:37:04.627Z,11.70
2022-09-18T05:42:08.438Z,11.60
2022-09-18T05:47:12.166Z,11.50
2022-09-18T05:52:17.031Z,11.40
2022-09-18T05:57:20.298Z,11.40
2022-09-18T06:02:23.807Z,11.50
2022-09-18T06:07:28.488Z,11.40
2022-09-18T06:12:31.762Z,11.60
2022-09-18T06:17:35.030Z,11.60
2022-09-18T06:22:39.962Z,11.70
2022-09-18T06:27:43.237Z,11.80
2022-09-18T06:32:46.947Z,11.90
2022-09-18T06:37:51.603Z,11.80
2022-09-18T06:42:57.338Z,11.90
2022-09-18T06:48:02.793Z,11.90
2022-09-18T06:53:12.414Z,11.90
2022-09-18T06:58:17.386Z,12.00
2022-09-18T07:03:20.701Z,12.10
2022-09-18T07:08:25.460Z,12.10
2022-09-18T07:13:31.937Z,12.00
2022-09-18T07:18:35.420Z,12.00
2022-09-18T07:23:40.060Z,11.90
2022-09-18T07:28:43.555Z,11.90
2022-09-18T07:33:52.660Z,11.80
2022-09-18T07:38:58.064Z,11.80
2022-09-18T07:44:02.015Z,11.90
2022-09-18T07:49:05.411Z,12.00
2022-09-18T07:54:10.121Z,12.00
2022-09-18T07:59:13.441Z,12.10
2022-09-18T08:04:16.854Z,12.10
2022-09-18T08:09:21.923Z,12.10
2022-09-18T08:14:28.735Z,12.20
2022-09-18T08:19:32.688Z,12.30
2022-09-18T08:24:37.517Z,12.30
2022-09-18T08:29:40.774Z,12.30
2022-09-18T08:34:44.028Z,12.30
2022-09-18T08:39:48.706Z,12.40
2022-09-18T08:44:56.415Z,12.40
2022-09-18T08:50:05.249Z,12.40
2022-09-18T08:55:15.586Z,12.40
2022-09-18T09:00:22.450Z,12.30
2022-09-18T09:05:33.685Z,11.90
2022-09-18T09:10:51.364Z,11.70
2022-09-18T09:16:00.470Z,11.50
2022-09-18T09:21:15.638Z,11.40
2022-09-18T09:26:23.581Z,11.40
2022-09-18T09:31:34.097Z,11.50
2022-09-18T09:36:38.424Z,11.50
2022-09-18T09:41:46.490Z,11.50
2022-09-18T09:47:01.272Z,11.40
2022-09-18T09:52:12.573Z,11.40
2022-09-18T09:57:25.718Z,11.50
2022-09-18T10:02:44.792Z,11.50
2022-09-18T10:07:51.601Z,11.50
2022-09-18T10:13:01.429Z,11.50
2022-09-18T10:18:10.027Z,11.40
2022-09-18T10:23:25.437Z,11.30
2022-09-18T10:28:30.976Z,11.30
2022-09-18T10:33:37.691Z,11.30
2022-09-18T10:38:41.202Z,11.20
2022-09-18T10:43:55.563Z,11.20
2022-09-18T10:49:02.291Z,11.40
2022-09-18T10:54:15.704Z,11.50
2022-09-18T10:59:36.581Z,11.50
2022-09-18T11:04:40.198Z,11.50
2022-09-18T11:09:44.598Z,11.50
2022-09-18T11:14:55.099Z,11.60
2022-09-18T11:20:01.437Z,11.60
2022-09-18T11:25:18.474Z,11.70
2022-09-18T11:30:26.997Z,11.80
2022-09-18T11:35:32.656Z,11.70
2022-09-18T11:40:48.813Z,11.80
2022-09-18T11:46:01.482Z,11.90
2022-09-18T11:51:11.862Z,12.00
2022-09-18T11:56:18.333Z,12.00
2022-09-18T12:01:35.174Z,12.10
2022-09-18T12:06:45.005Z,12.20
2022-09-18T12:11:55.066Z,12.40
2022-09-18T12:17:08.922Z,12.50
2022-09-18T12:22:15.785Z,12.70
2022-09-18T12:27:28.778Z,12.90
2022-09-18T12:33:04.317Z,13.00
2022-09-18T12:38:21.115Z,13.10
2022-09-18T12:44:06.678Z,13.30
2022-09-18T12:49:33.867Z,13.50
2022-09-18T12:54:58.086Z,13.80
2022-09-18T13:00:08.186Z,14.00
2022-09-18T13:05:19.312Z,14.10
2022-09-18T13:10:26.705Z,14.30
2022-09-18T13:15:35.014Z,14.40
2022-09-18T13:20:44.441Z,14.40
2022-09-18T13:25:51.704Z,14.50
2022-09-18T13:31:27.853Z,14.50
2022-09-18T13:36:36.125Z,14.60
2022-09-18T13:41:45.691Z,14.70
2022-09-18T13:46:50.154Z,14.90
2022-09-18T13:51:54.835Z,15.20
2022-09-18T13:57:31.759Z,15.40
2022-09-18T14:02:37.340Z,15.70
2022-09-18T14:08:07.063Z,16.00
2022-09-18T14:13:42.360Z,16.30
2022-09-18T14:18:57.982Z,16.40
2022-09-18T14:24:36.474Z,16.40
2022-09-18T14:29:40.597Z,16.60
2022-09-18T14:34:44.953Z,16.60
2022-09-18T14:39:49.939Z,16.60
2022-09-18T14:44:59.275Z,16.40
2022-09-18T14:50:02.658Z,16.20
2022-09-18T14:55:18.381Z,16.00
2022-09-18T15:00:25.482Z,16.20
2022-09-18T15:05:30.002Z,16.60
2022-09-18T15:10:39.169Z,17.50
2022-09-18T15:15:44.106Z,17.40
2022-09-18T15:20:51.634Z,17.30
2022-09-18T15:26:00.283Z,16.90
2022-09-18T15:31:08.594Z,16.70
2022-09-18T15:36:22.105Z,16.60
2022-09-18T15:41:32.740Z,16.30
2022-09-18T15:46:38.108Z,16.40
2022-09-18T15:51:41.557Z,16.40
2022-09-18T15:56:55.222Z,16.10
2022-09-18T16:02:00.238Z,15.80
2022-09-18T16:07:06.353Z,15.60
2022-09-18T16:12:36.771Z,15.50
2022-09-18T16:17:53.885Z,15.50
2022-09-18T16:23:05.181Z,15.60
2022-09-18T16:28:24.802Z,15.50
2022-09-18T16:33:30.937Z,15.30
2022-09-18T16:38:34.344Z,15.30
2022-09-18T16:43:39.016Z,15.10
2022-09-18T16:48:42.468Z,14.90
2022-09-18T16:53:47.712Z,14.80
2022-09-18T16:58:53.546Z,14.70
2022-09-18T17:03:57.214Z,14.60
2022-09-18T17:09:00.660Z,14.70
2022-09-18T17:14:06.442Z,14.60
2022-09-18T17:19:10.836Z,14.30
2022-09-18T17:24:14.391Z,14.10
2022-09-18T17:29:19.045Z,14.00
2022-09-18T17:34:22.354Z,13.80
2022-09-18T17:39:25.656Z,13.80
2022-09-18T17:44:34.397Z,13.70
2022-09-18T17:49:38.094Z,13.70
2022-09-18T17:54:41.813Z,13.70
2022-09-18T17:59:47.763Z,13.60
2022-09-18T18:04:51.123Z,13.40
2022-09-18T18:09:54.837Z,13.30
2022-09-18T18:14:59.935Z,13.20
2022-09-18T18:20:06.174Z,13.20
2022-09-18T18:25:13.296Z,13.10
2022-09-18T18:30:21.639Z,13.00
2022-09-18T18:35:25.123Z,12.90
2022-09-18T18:40:28.564Z,12.90
2022-09-18T18:45:35.350Z,13.00
2022-09-18T18:50:44.219Z,13.10
2022-09-18T18:55:51.477Z,13.30
2022-09-18T19:01:05.736Z,13.40
2022-09-18T19:06:09.134Z,13.40
2022-09-18T19:11:13.731Z,13.40
2022-09-18T19:16:19.323Z,13.20
2022-09-18T19:21:23.520Z,13.10
2022-09-18T19:26:29.323Z,13.10
2022-09-18T19:31:36.272Z,12.80
2022-09-18T19:36:39.993Z,12.60
2022-09-18T19:41:48.493Z,12.40
2022-09-18T19:46:58.113Z,12.30
2022-09-18T19:52:03.065Z,12.30
2022-09-18T19:57:06.534Z,12.20
2022-09-18T20:02:17.289Z,12.10
2022-09-18T20:07:20.964Z,12.20
2022-09-18T20:12:24.401Z,12.30
2022-09-18T20:17:32.266Z,12.40
2022-09-18T20:22:39.964Z,12.50
2022-09-18T20:27:43.581Z,12.40
2022-09-18T20:32:48.915Z,12.40
2022-09-18T20:37:53.295Z,12.50
2022-09-18T20:42:56.597Z,12.50
2022-09-18T20:48:06.426Z,12.60
2022-09-18T20:53:10.078Z,12.70
2022-09-18T20:58:15.339Z,12.70
2022-09-18T21:03:21.141Z,12.70
2022-09-18T21:08:25.915Z,12.70
2022-09-18T21:13:29.450Z,12.70
2022-09-18T21:18:36.438Z,12.70
2022-09-18T21:23:56.553Z,12.70
2022-09-18T21:29:01.855Z,12.70
2022-09-18T21:34:06.618Z,12.70
2022-09-18T21:39:11.853Z,12.70
2022-09-18T21:44:17.337Z,12.60
2022-09-18T21:49:22.831Z,12.60
2022-09-18T21:54:27.313Z,12.60
2022-09-18T21:59:32.087Z,12.60
2022-09-18T22:04:38.660Z,12.60
2022-09-18T22:09:42.919Z,12.50
2022-09-18T22:14:46.548Z,12.30
2022-09-18T22:19:51.177Z,12.20
2022-09-18T22:24:55.535Z,12.20
2022-09-18T22:29:58.819Z,12.10
2022-09-18T22:35:03.475Z,12.20
2022-09-18T22:40:08.259Z,11.90
2022-09-18T22:45:12.336Z,11.60
2022-09-18T22:50:17.226Z,11.40
2022-09-18T22:55:21.604Z,11.10
2022-09-18T23:00:24.900Z,11.00
2022-09-18T23:05:29.587Z,10.90
2022-09-18T23:10:33.743Z,10.90
2022-09-18T23:15:37.894Z,10.80
2022-09-18T23:20:43.092Z,10.80
2022-09-18T23:25:46.356Z,10.80
2022-09-18T23:30:49.728Z,10.80
2022-09-18T23:35:54.400Z,10.70
2022-09-18T23:41:00.882Z,10.70
2022-09-18T23:46:05.521Z,10.60
2022-09-18T23:51:12.711Z,10.70
2022-09-18T23:56:17.131Z,10.90
